sensor_id;sensor_type;location;lat;lon;timestamp;P1;durP1;ratioP1;P2;durP2;ratioP2
21162;SDS011;10739;52.198;20.908;2024-01-30T00:00:53;55.53;;;26.73;;
21162;SDS011;10739;52.198;20.908;2024-01-30T00:03:20;53.13;;;26.98;;
21162;SDS011;10739;52.198;20.908;2024-01-30T00:05:47;53.63;;;27.77;;
21162;SDS011;10739;52.198;20.908;2024-01-30T00:08:14;52.47;;;27.92;;
21162;SDS011;10739;52.198;20.908;2024-01-30T00:10:42;58.88;;;28.60;;
21162;SDS011;10739;52.198;20.908;2024-01-30T00:13:08;51.13;;;26.92;;
21162;SDS011;10739;52.198;20.908;2024-01-30T00:15:35;52.90;;;28.08;;
21162;SDS011;10739;52.198;20.908;2024-01-30T00:18:01;51.28;;;27.33;;
21162;SDS011;10739;52.198;20.908;2024-01-30T00:20:27;55.17;;;27.45;;
21162;SDS011;10739;52.198;20.908;2024-01-30T00:22:53;53.08;;;27.23;;
21162;SDS011;10739;52.198;20.908;2024-01-30T00:25:20;49.85;;;26.77;;
21162;SDS011;10739;52.198;20.908;2024-01-30T00:27:46;54.75;;;27.45;;
21162;SDS011;10739;52.198;20.908;2024-01-30T00:30:12;48.70;;;26.77;;
21162;SDS011;10739;52.198;20.908;2024-01-30T00:32:40;52.72;;;26.17;;
21162;SDS011;10739;52.198;20.908;2024-01-30T00:35:06;51.35;;;27.58;;
21162;SDS011;10739;52.198;20.908;2024-01-30T00:37:35;54.42;;;27.45;;
21162;SDS011;10739;52.198;20.908;2024-01-30T00:40:01;53.72;;;26.95;;
21162;SDS011;10739;52.198;20.908;2024-01-30T00:42:28;51.47;;;26.13;;
21162;SDS011;10739;52.198;20.908;2024-01-30T00:44:58;59.20;;;27.52;;
21162;SDS011;10739;52.198;20.908;2024-01-30T00:47:35;55.70;;;27.38;;
21162;SDS011;10739;52.198;20.908;2024-01-30T00:50:01;58.42;;;27.88;;
21162;SDS011;10739;52.198;20.908;2024-01-30T00:52:27;50.38;;;26.60;;
21162;SDS011;10739;52.198;20.908;2024-01-30T00:54:54;51.67;;;27.40;;
21162;SDS011;10739;52.198;20.908;2024-01-30T00:57:20;57.40;;;26.58;;
21162;SDS011;10739;52.198;20.908;2024-01-30T00:59:46;54.65;;;27.17;;
21162;SDS011;10739;52.198;20.908;2024-01-30T01:02:13;52.58;;;26.70;;
21162;SDS011;10739;52.198;20.908;2024-01-30T01:04:40;52.63;;;27.08;;
21162;SDS011;10739;52.198;20.908;2024-01-30T01:07:06;53.40;;;26.52;;
21162;SDS011;10739;52.198;20.908;2024-01-30T01:09:33;47.92;;;25.88;;
21162;SDS011;10739;52.198;20.908;2024-01-30T01:11:59;51.92;;;27.90;;
21162;SDS011;10739;52.198;20.908;2024-01-30T01:14:25;46.22;;;25.38;;
21162;SDS011;10739;52.198;20.908;2024-01-30T01:16:51;49.65;;;26.20;;
21162;SDS011;10739;52.198;20.908;2024-01-30T01:19:18;56.35;;;26.75;;
21162;SDS011;10739;52.198;20.908;2024-01-30T01:21:44;55.83;;;26.63;;
21162;SDS011;10739;52.198;20.908;2024-01-30T01:24:10;54.42;;;26.10;;
21162;SDS011;10739;52.198;20.908;2024-01-30T01:26:36;55.13;;;27.33;;
21162;SDS011;10739;52.198;20.908;2024-01-30T01:29:03;48.75;;;26.27;;
21162;SDS011;10739;52.198;20.908;2024-01-30T01:31:38;53.95;;;26.65;;
21162;SDS011;10739;52.198;20.908;2024-01-30T01:34:11;51.45;;;26.00;;
21162;SDS011;10739;52.198;20.908;2024-01-30T01:36:38;53.17;;;25.05;;
21162;SDS011;10739;52.198;20.908;2024-01-30T01:39:05;50.50;;;26.20;;
21162;SDS011;10739;52.198;20.908;2024-01-30T01:41:32;47.92;;;25.60;;
21162;SDS011;10739;52.198;20.908;2024-01-30T01:43:59;52.05;;;27.17;;
21162;SDS011;10739;52.198;20.908;2024-01-30T01:46:27;51.00;;;25.70;;
21162;SDS011;10739;52.198;20.908;2024-01-30T01:48:58;47.28;;;25.85;;
21162;SDS011;10739;52.198;20.908;2024-01-30T01:51:26;48.70;;;25.90;;
21162;SDS011;10739;52.198;20.908;2024-01-30T01:53:56;50.25;;;25.90;;
21162;SDS011;10739;52.198;20.908;2024-01-30T01:56:27;53.85;;;26.52;;
21162;SDS011;10739;52.198;20.908;2024-01-30T01:58:54;51.42;;;25.10;;
21162;SDS011;10739;52.198;20.908;2024-01-30T02:01:31;50.53;;;26.45;;
21162;SDS011;10739;52.198;20.908;2024-01-30T02:03:59;46.72;;;25.85;;
21162;SDS011;10739;52.198;20.908;2024-01-30T02:06:26;48.00;;;25.38;;
21162;SDS011;10739;52.198;20.908;2024-01-30T02:08:54;50.08;;;25.73;;
21162;SDS011;10739;52.198;20.908;2024-01-30T02:11:21;50.35;;;26.75;;
21162;SDS011;10739;52.198;20.908;2024-01-30T02:13:49;53.58;;;25.45;;
21162;SDS011;10739;52.198;20.908;2024-01-30T02:16:15;50.20;;;25.42;;
21162;SDS011;10739;52.198;20.908;2024-01-30T02:18:45;48.53;;;25.83;;
21162;SDS011;10739;52.198;20.908;2024-01-30T02:21:16;48.22;;;25.13;;
21162;SDS011;10739;52.198;20.908;2024-01-30T02:23:44;52.03;;;25.88;;
21162;SDS011;10739;52.198;20.908;2024-01-30T02:26:14;51.35;;;23.77;;
21162;SDS011;10739;52.198;20.908;2024-01-30T02:28:40;49.20;;;25.70;;
21162;SDS011;10739;52.198;20.908;2024-01-30T02:31:06;46.67;;;25.38;;
21162;SDS011;10739;52.198;20.908;2024-01-30T02:33:33;52.63;;;26.02;;
21162;SDS011;10739;52.198;20.908;2024-01-30T02:35:59;50.38;;;25.15;;
21162;SDS011;10739;52.198;20.908;2024-01-30T02:38:26;49.53;;;25.40;;
21162;SDS011;10739;52.198;20.908;2024-01-30T02:40:52;48.00;;;24.10;;
21162;SDS011;10739;52.198;20.908;2024-01-30T02:43:18;46.38;;;24.33;;
21162;SDS011;10739;52.198;20.908;2024-01-30T02:45:45;45.65;;;24.50;;
21162;SDS011;10739;52.198;20.908;2024-01-30T02:48:11;47.63;;;24.65;;
21162;SDS011;10739;52.198;20.908;2024-01-30T02:50:38;51.17;;;24.30;;
21162;SDS011;10739;52.198;20.908;2024-01-30T02:53:05;48.33;;;24.38;;
21162;SDS011;10739;52.198;20.908;2024-01-30T02:55:31;48.75;;;24.88;;
21162;SDS011;10739;52.198;20.908;2024-01-30T02:57:58;48.50;;;24.85;;
21162;SDS011;10739;52.198;20.908;2024-01-30T03:00:25;47.83;;;24.80;;
21162;SDS011;10739;52.198;20.908;2024-01-30T03:02:51;44.63;;;23.92;;
21162;SDS011;10739;52.198;20.908;2024-01-30T03:05:17;49.72;;;25.25;;
21162;SDS011;10739;52.198;20.908;2024-01-30T03:07:43;46.38;;;24.42;;
21162;SDS011;10739;52.198;20.908;2024-01-30T03:10:09;47.38;;;24.52;;
21162;SDS011;10739;52.198;20.908;2024-01-30T03:12:36;51.17;;;24.80;;
21162;SDS011;10739;52.198;20.908;2024-01-30T03:15:02;46.45;;;25.48;;
21162;SDS011;10739;52.198;20.908;2024-01-30T03:17:28;44.90;;;23.63;;
21162;SDS011;10739;52.198;20.908;2024-01-30T03:19:54;41.15;;;22.95;;
21162;SDS011;10739;52.198;20.908;2024-01-30T03:22:21;50.35;;;24.83;;
21162;SDS011;10739;52.198;20.908;2024-01-30T03:24:47;50.20;;;24.20;;
21162;SDS011;10739;52.198;20.908;2024-01-30T03:27:14;48.50;;;25.23;;
21162;SDS011;10739;52.198;20.908;2024-01-30T03:29:40;48.85;;;23.40;;
21162;SDS011;10739;52.198;20.908;2024-01-30T03:32:06;49.70;;;24.52;;
21162;SDS011;10739;52.198;20.908;2024-01-30T03:34:32;49.45;;;24.38;;
21162;SDS011;10739;52.198;20.908;2024-01-30T03:36:59;45.70;;;23.23;;
21162;SDS011;10739;52.198;20.908;2024-01-30T03:39:25;47.75;;;24.05;;
21162;SDS011;10739;52.198;20.908;2024-01-30T03:41:52;45.55;;;22.38;;
21162;SDS011;10739;52.198;20.908;2024-01-30T03:44:18;50.38;;;26.02;;
21162;SDS011;10739;52.198;20.908;2024-01-30T03:46:45;43.10;;;23.73;;
21162;SDS011;10739;52.198;20.908;2024-01-30T03:49:12;49.78;;;25.00;;
21162;SDS011;10739;52.198;20.908;2024-01-30T03:51:38;46.08;;;24.63;;
21162;SDS011;10739;52.198;20.908;2024-01-30T03:54:04;42.85;;;22.83;;
21162;SDS011;10739;52.198;20.908;2024-01-30T03:56:30;47.88;;;24.38;;
21162;SDS011;10739;52.198;20.908;2024-01-30T03:58:57;42.60;;;23.27;;
21162;SDS011;10739;52.198;20.908;2024-01-30T04:01:25;46.65;;;23.95;;
21162;SDS011;10739;52.198;20.908;2024-01-30T04:03:52;47.25;;;23.67;;
21162;SDS011;10739;52.198;20.908;2024-01-30T04:06:18;44.47;;;23.27;;
21162;SDS011;10739;52.198;20.908;2024-01-30T04:08:44;45.90;;;23.27;;
21162;SDS011;10739;52.198;20.908;2024-01-30T04:11:11;45.95;;;23.88;;
21162;SDS011;10739;52.198;20.908;2024-01-30T04:13:37;42.08;;;23.52;;
21162;SDS011;10739;52.198;20.908;2024-01-30T04:16:03;42.90;;;22.83;;
21162;SDS011;10739;52.198;20.908;2024-01-30T04:18:30;49.55;;;23.45;;
21162;SDS011;10739;52.198;20.908;2024-01-30T04:20:58;49.03;;;23.73;;
21162;SDS011;10739;52.198;20.908;2024-01-30T04:23:24;48.63;;;24.17;;
21162;SDS011;10739;52.198;20.908;2024-01-30T04:25:50;45.38;;;24.23;;
21162;SDS011;10739;52.198;20.908;2024-01-30T04:28:17;44.88;;;23.05;;
21162;SDS011;10739;52.198;20.908;2024-01-30T04:30:43;45.42;;;24.15;;
21162;SDS011;10739;52.198;20.908;2024-01-30T04:33:10;50.70;;;24.50;;
21162;SDS011;10739;52.198;20.908;2024-01-30T04:35:36;49.03;;;23.73;;
21162;SDS011;10739;52.198;20.908;2024-01-30T04:38:03;43.75;;;23.17;;
21162;SDS011;10739;52.198;20.908;2024-01-30T04:40:29;47.20;;;24.15;;
21162;SDS011;10739;52.198;20.908;2024-01-30T04:42:55;47.50;;;24.50;;
21162;SDS011;10739;52.198;20.908;2024-01-30T04:45:22;45.03;;;23.25;;
21162;SDS011;10739;52.198;20.908;2024-01-30T04:47:48;47.72;;;23.20;;
21162;SDS011;10739;52.198;20.908;2024-01-30T04:50:14;49.13;;;24.92;;
21162;SDS011;10739;52.198;20.908;2024-01-30T04:52:40;48.63;;;22.83;;
21162;SDS011;10739;52.198;20.908;2024-01-30T04:55:07;45.40;;;23.27;;
21162;SDS011;10739;52.198;20.908;2024-01-30T04:57:33;44.58;;;23.05;;
21162;SDS011;10739;52.198;20.908;2024-01-30T05:00:00;48.17;;;24.48;;
21162;SDS011;10739;52.198;20.908;2024-01-30T05:02:27;41.83;;;23.67;;
21162;SDS011;10739;52.198;20.908;2024-01-30T05:04:53;43.88;;;24.23;;
21162;SDS011;10739;52.198;20.908;2024-01-30T05:07:20;44.10;;;23.13;;
21162;SDS011;10739;52.198;20.908;2024-01-30T05:09:46;46.20;;;22.52;;
21162;SDS011;10739;52.198;20.908;2024-01-30T05:12:12;43.28;;;23.90;;
21162;SDS011;10739;52.198;20.908;2024-01-30T05:14:38;47.10;;;23.98;;
21162;SDS011;10739;52.198;20.908;2024-01-30T05:17:04;49.35;;;24.17;;
21162;SDS011;10739;52.198;20.908;2024-01-30T05:19:31;44.97;;;23.33;;
21162;SDS011;10739;52.198;20.908;2024-01-30T05:21:57;46.83;;;23.45;;
21162;SDS011;10739;52.198;20.908;2024-01-30T05:24:23;46.85;;;23.52;;
21162;SDS011;10739;52.198;20.908;2024-01-30T05:26:50;45.30;;;23.50;;
21162;SDS011;10739;52.198;20.908;2024-01-30T05:29:16;51.97;;;24.02;;
21162;SDS011;10739;52.198;20.908;2024-01-30T05:31:42;48.03;;;24.65;;
21162;SDS011;10739;52.198;20.908;2024-01-30T05:34:09;45.67;;;22.92;;
21162;SDS011;10739;52.198;20.908;2024-01-30T05:36:35;47.67;;;24.33;;
21162;SDS011;10739;52.198;20.908;2024-01-30T05:39:01;48.08;;;23.73;;
21162;SDS011;10739;52.198;20.908;2024-01-30T05:41:27;48.80;;;25.25;;
21162;SDS011;10739;52.198;20.908;2024-01-30T05:43:54;50.05;;;24.20;;
21162;SDS011;10739;52.198;20.908;2024-01-30T05:46:20;45.80;;;24.13;;
21162;SDS011;10739;52.198;20.908;2024-01-30T05:48:47;50.08;;;24.40;;
21162;SDS011;10739;52.198;20.908;2024-01-30T05:51:13;45.63;;;22.90;;
21162;SDS011;10739;52.198;20.908;2024-01-30T05:53:39;43.80;;;23.90;;
21162;SDS011;10739;52.198;20.908;2024-01-30T05:56:06;44.55;;;23.00;;
21162;SDS011;10739;52.198;20.908;2024-01-30T05:58:32;43.80;;;23.75;;
21162;SDS011;10739;52.198;20.908;2024-01-30T06:00:58;43.42;;;23.42;;
21162;SDS011;10739;52.198;20.908;2024-01-30T06:03:25;45.92;;;23.90;;
21162;SDS011;10739;52.198;20.908;2024-01-30T06:05:51;43.58;;;23.67;;
21162;SDS011;10739;52.198;20.908;2024-01-30T06:08:17;40.83;;;23.20;;
21162;SDS011;10739;52.198;20.908;2024-01-30T06:10:44;47.00;;;23.60;;
21162;SDS011;10739;52.198;20.908;2024-01-30T06:13:10;48.25;;;24.17;;
21162;SDS011;10739;52.198;20.908;2024-01-30T06:15:36;43.17;;;23.35;;
21162;SDS011;10739;52.198;20.908;2024-01-30T06:18:03;42.88;;;23.70;;
21162;SDS011;10739;52.198;20.908;2024-01-30T06:20:29;45.55;;;23.52;;
21162;SDS011;10739;52.198;20.908;2024-01-30T06:22:56;47.33;;;24.10;;
21162;SDS011;10739;52.198;20.908;2024-01-30T06:25:22;48.88;;;23.80;;
21162;SDS011;10739;52.198;20.908;2024-01-30T06:27:49;47.47;;;23.70;;
21162;SDS011;10739;52.198;20.908;2024-01-30T06:30:15;52.63;;;24.70;;
21162;SDS011;10739;52.198;20.908;2024-01-30T06:32:42;50.42;;;24.35;;
21162;SDS011;10739;52.198;20.908;2024-01-30T06:35:08;47.15;;;23.42;;
21162;SDS011;10739;52.198;20.908;2024-01-30T06:37:36;45.88;;;23.08;;
21162;SDS011;10739;52.198;20.908;2024-01-30T06:40:02;44.83;;;22.42;;
21162;SDS011;10739;52.198;20.908;2024-01-30T06:42:30;51.30;;;24.33;;
21162;SDS011;10739;52.198;20.908;2024-01-30T06:44:57;44.45;;;22.88;;
21162;SDS011;10739;52.198;20.908;2024-01-30T06:47:23;43.63;;;24.27;;
21162;SDS011;10739;52.198;20.908;2024-01-30T06:49:49;48.90;;;22.77;;
21162;SDS011;10739;52.198;20.908;2024-01-30T06:52:15;45.83;;;23.80;;
21162;SDS011;10739;52.198;20.908;2024-01-30T06:54:42;41.85;;;22.08;;
21162;SDS011;10739;52.198;20.908;2024-01-30T06:57:08;44.42;;;22.15;;
21162;SDS011;10739;52.198;20.908;2024-01-30T06:59:37;49.75;;;22.70;;
21162;SDS011;10739;52.198;20.908;2024-01-30T07:02:09;42.60;;;23.48;;
21162;SDS011;10739;52.198;20.908;2024-01-30T07:04:36;48.50;;;22.60;;
21162;SDS011;10739;52.198;20.908;2024-01-30T07:07:03;45.08;;;22.27;;
21162;SDS011;10739;52.198;20.908;2024-01-30T07:09:30;46.13;;;21.88;;
21162;SDS011;10739;52.198;20.908;2024-01-30T07:11:57;45.67;;;22.42;;
21162;SDS011;10739;52.198;20.908;2024-01-30T07:14:26;46.08;;;22.60;;
21162;SDS011;10739;52.198;20.908;2024-01-30T07:16:52;45.97;;;22.45;;
21162;SDS011;10739;52.198;20.908;2024-01-30T07:19:18;45.30;;;21.98;;
21162;SDS011;10739;52.198;20.908;2024-01-30T07:21:44;44.83;;;23.00;;
21162;SDS011;10739;52.198;20.908;2024-01-30T07:24:11;44.58;;;21.75;;
21162;SDS011;10739;52.198;20.908;2024-01-30T07:26:37;46.30;;;22.30;;
21162;SDS011;10739;52.198;20.908;2024-01-30T07:29:03;48.45;;;23.50;;
21162;SDS011;10739;52.198;20.908;2024-01-30T07:31:29;45.60;;;22.65;;
21162;SDS011;10739;52.198;20.908;2024-01-30T07:33:56;49.50;;;21.42;;
21162;SDS011;10739;52.198;20.908;2024-01-30T07:36:22;38.53;;;19.95;;
21162;SDS011;10739;52.198;20.908;2024-01-30T07:38:48;44.55;;;21.70;;
21162;SDS011;10739;52.198;20.908;2024-01-30T07:41:15;42.38;;;21.45;;
21162;SDS011;10739;52.198;20.908;2024-01-30T07:43:42;43.22;;;22.30;;
21162;SDS011;10739;52.198;20.908;2024-01-30T07:46:09;45.92;;;22.45;;
21162;SDS011;10739;52.198;20.908;2024-01-30T07:48:36;43.47;;;22.58;;
21162;SDS011;10739;52.198;20.908;2024-01-30T07:51:02;49.00;;;21.92;;
21162;SDS011;10739;52.198;20.908;2024-01-30T07:53:29;45.47;;;21.50;;
21162;SDS011;10739;52.198;20.908;2024-01-30T07:55:55;43.15;;;21.55;;
21162;SDS011;10739;52.198;20.908;2024-01-30T07:58:21;37.88;;;20.25;;
21162;SDS011;10739;52.198;20.908;2024-01-30T08:00:49;38.17;;;21.50;;
21162;SDS011;10739;52.198;20.908;2024-01-30T08:03:16;43.97;;;21.20;;
21162;SDS011;10739;52.198;20.908;2024-01-30T08:05:43;41.20;;;20.95;;
21162;SDS011;10739;52.198;20.908;2024-01-30T08:08:09;42.15;;;19.77;;
21162;SDS011;10739;52.198;20.908;2024-01-30T08:10:36;40.03;;;21.05;;
21162;SDS011;10739;52.198;20.908;2024-01-30T08:13:02;41.80;;;20.77;;
21162;SDS011;10739;52.198;20.908;2024-01-30T08:15:28;37.53;;;20.33;;
21162;SDS011;10739;52.198;20.908;2024-01-30T08:17:54;40.90;;;19.98;;
21162;SDS011;10739;52.198;20.908;2024-01-30T08:20:23;41.83;;;20.17;;
21162;SDS011;10739;52.198;20.908;2024-01-30T08:22:50;39.33;;;19.17;;
21162;SDS011;10739;52.198;20.908;2024-01-30T08:25:17;32.70;;;17.25;;
21162;SDS011;10739;52.198;20.908;2024-01-30T08:27:43;28.95;;;15.68;;
21162;SDS011;10739;52.198;20.908;2024-01-30T08:30:10;31.80;;;16.33;;
21162;SDS011;10739;52.198;20.908;2024-01-30T08:32:37;28.17;;;16.02;;
21162;SDS011;10739;52.198;20.908;2024-01-30T08:35:03;30.08;;;16.27;;
21162;SDS011;10739;52.198;20.908;2024-01-30T08:37:30;28.95;;;15.15;;
21162;SDS011;10739;52.198;20.908;2024-01-30T08:39:56;34.40;;;15.48;;
21162;SDS011;10739;52.198;20.908;2024-01-30T08:42:22;32.33;;;14.82;;
21162;SDS011;10739;52.198;20.908;2024-01-30T08:44:48;26.85;;;14.35;;
21162;SDS011;10739;52.198;20.908;2024-01-30T08:47:16;27.48;;;13.63;;
21162;SDS011;10739;52.198;20.908;2024-01-30T08:49:43;24.52;;;13.10;;
21162;SDS011;10739;52.198;20.908;2024-01-30T08:52:10;30.20;;;14.15;;
21162;SDS011;10739;52.198;20.908;2024-01-30T08:54:36;24.05;;;13.48;;
21162;SDS011;10739;52.198;20.908;2024-01-30T08:57:03;27.13;;;13.32;;
21162;SDS011;10739;52.198;20.908;2024-01-30T08:59:30;26.85;;;12.77;;
21162;SDS011;10739;52.198;20.908;2024-01-30T09:01:56;24.25;;;11.82;;
21162;SDS011;10739;52.198;20.908;2024-01-30T09:04:23;22.27;;;11.77;;
21162;SDS011;10739;52.198;20.908;2024-01-30T09:06:50;27.48;;;13.27;;
21162;SDS011;10739;52.198;20.908;2024-01-30T09:09:16;25.73;;;13.02;;
21162;SDS011;10739;52.198;20.908;2024-01-30T09:11:43;19.90;;;12.20;;
21162;SDS011;10739;52.198;20.908;2024-01-30T09:14:09;25.63;;;11.65;;
21162;SDS011;10739;52.198;20.908;2024-01-30T09:16:35;22.40;;;12.13;;
21162;SDS011;10739;52.198;20.908;2024-01-30T09:19:01;23.05;;;12.43;;
21162;SDS011;10739;52.198;20.908;2024-01-30T09:21:27;22.13;;;12.88;;
21162;SDS011;10739;52.198;20.908;2024-01-30T09:23:54;25.65;;;13.18;;
21162;SDS011;10739;52.198;20.908;2024-01-30T09:26:28;25.98;;;12.98;;
21162;SDS011;10739;52.198;20.908;2024-01-30T09:28:54;26.50;;;12.57;;
21162;SDS011;10739;52.198;20.908;2024-01-30T09:31:20;22.20;;;12.43;;
21162;SDS011;10739;52.198;20.908;2024-01-30T09:33:46;24.17;;;12.48;;
21162;SDS011;10739;52.198;20.908;2024-01-30T09:36:13;23.80;;;12.52;;
21162;SDS011;10739;52.198;20.908;2024-01-30T09:38:44;23.42;;;12.57;;
21162;SDS011;10739;52.198;20.908;2024-01-30T09:41:10;18.10;;;12.15;;
21162;SDS011;10739;52.198;20.908;2024-01-30T09:43:38;23.38;;;12.80;;
21162;SDS011;10739;52.198;20.908;2024-01-30T09:46:08;20.67;;;11.32;;
21162;SDS011;10739;52.198;20.908;2024-01-30T09:48:40;25.05;;;12.00;;
21162;SDS011;10739;52.198;20.908;2024-01-30T09:51:11;20.15;;;12.38;;
21162;SDS011;10739;52.198;20.908;2024-01-30T09:53:39;27.27;;;10.65;;
21162;SDS011;10739;52.198;20.908;2024-01-30T09:56:08;23.55;;;12.20;;
21162;SDS011;10739;52.198;20.908;2024-01-30T09:58:34;22.58;;;11.98;;
21162;SDS011;10739;52.198;20.908;2024-01-30T10:01:00;24.55;;;11.75;;
21162;SDS011;10739;52.198;20.908;2024-01-30T10:03:27;22.35;;;11.85;;
21162;SDS011;10739;52.198;20.908;2024-01-30T10:05:57;20.23;;;11.48;;
21162;SDS011;10739;52.198;20.908;2024-01-30T10:08:25;23.92;;;11.60;;
21162;SDS011;10739;52.198;20.908;2024-01-30T10:10:52;22.10;;;11.05;;
21162;SDS011;10739;52.198;20.908;2024-01-30T10:13:18;23.42;;;11.73;;
21162;SDS011;10739;52.198;20.908;2024-01-30T10:15:44;23.50;;;10.95;;
21162;SDS011;10739;52.198;20.908;2024-01-30T10:18:12;23.65;;;11.35;;
21162;SDS011;10739;52.198;20.908;2024-01-30T10:20:38;21.73;;;11.32;;
21162;SDS011;10739;52.198;20.908;2024-01-30T10:23:05;28.35;;;11.90;;
21162;SDS011;10739;52.198;20.908;2024-01-30T10:25:32;24.88;;;11.20;;
21162;SDS011;10739;52.198;20.908;2024-01-30T10:27:58;20.95;;;10.80;;
21162;SDS011;10739;52.198;20.908;2024-01-30T10:30:25;17.85;;;10.30;;
21162;SDS011;10739;52.198;20.908;2024-01-30T10:32:53;24.70;;;11.20;;
21162;SDS011;10739;52.198;20.908;2024-01-30T10:35:19;55.22;;;11.73;;
21162;SDS011;10739;52.198;20.908;2024-01-30T10:37:48;18.75;;;10.38;;
21162;SDS011;10739;52.198;20.908;2024-01-30T10:40:15;24.90;;;11.25;;
21162;SDS011;10739;52.198;20.908;2024-01-30T10:42:44;21.95;;;10.48;;
21162;SDS011;10739;52.198;20.908;2024-01-30T10:45:12;19.45;;;10.20;;
21162;SDS011;10739;52.198;20.908;2024-01-30T10:47:49;21.95;;;11.18;;
21162;SDS011;10739;52.198;20.908;2024-01-30T10:50:18;26.33;;;11.00;;
21162;SDS011;10739;52.198;20.908;2024-01-30T10:52:46;24.00;;;10.52;;
21162;SDS011;10739;52.198;20.908;2024-01-30T10:55:13;20.42;;;11.18;;
21162;SDS011;10739;52.198;20.908;2024-01-30T10:57:41;18.50;;;10.43;;
21162;SDS011;10739;52.198;20.908;2024-01-30T11:00:10;17.95;;;10.35;;
21162;SDS011;10739;52.198;20.908;2024-01-30T11:02:44;22.27;;;10.45;;
21162;SDS011;10739;52.198;20.908;2024-01-30T11:05:12;26.02;;;11.10;;
21162;SDS011;10739;52.198;20.908;2024-01-30T11:07:40;19.00;;;10.25;;
21162;SDS011;10739;52.198;20.908;2024-01-30T11:10:07;20.67;;;10.25;;
21162;SDS011;10739;52.198;20.908;2024-01-30T11:12:38;19.98;;;9.95;;
21162;SDS011;10739;52.198;20.908;2024-01-30T11:15:10;20.30;;;10.40;;
21162;SDS011;10739;52.198;20.908;2024-01-30T11:20:15;16.73;;;10.07;;
21162;SDS011;10739;52.198;20.908;2024-01-30T11:22:46;15.65;;;9.50;;
21162;SDS011;10739;52.198;20.908;2024-01-30T11:25:16;18.73;;;9.93;;
21162;SDS011;10739;52.198;20.908;2024-01-30T11:27:46;19.13;;;9.63;;
21162;SDS011;10739;52.198;20.908;2024-01-30T11:30:26;19.27;;;9.70;;
21162;SDS011;10739;52.198;20.908;2024-01-30T11:33:07;17.67;;;9.60;;
21162;SDS011;10739;52.198;20.908;2024-01-30T11:35:38;19.05;;;9.45;;
21162;SDS011;10739;52.198;20.908;2024-01-30T11:38:18;18.03;;;10.10;;
21162;SDS011;10739;52.198;20.908;2024-01-30T11:40:45;20.13;;;10.07;;
21162;SDS011;10739;52.198;20.908;2024-01-30T11:43:11;20.08;;;9.77;;
21162;SDS011;10739;52.198;20.908;2024-01-30T11:45:38;25.67;;;11.07;;
21162;SDS011;10739;52.198;20.908;2024-01-30T11:48:04;23.45;;;10.98;;
21162;SDS011;10739;52.198;20.908;2024-01-30T11:50:32;20.63;;;10.02;;
21162;SDS011;10739;52.198;20.908;2024-01-30T11:53:00;17.27;;;10.70;;
21162;SDS011;10739;52.198;20.908;2024-01-30T11:55:26;17.27;;;10.10;;
21162;SDS011;10739;52.198;20.908;2024-01-30T11:57:55;19.85;;;10.10;;
21162;SDS011;10739;52.198;20.908;2024-01-30T12:00:23;20.58;;;10.38;;
21162;SDS011;10739;52.198;20.908;2024-01-30T12:02:50;22.90;;;11.68;;
21162;SDS011;10739;52.198;20.908;2024-01-30T12:05:24;22.35;;;12.20;;
21162;SDS011;10739;52.198;20.908;2024-01-30T12:07:51;23.25;;;11.55;;
21162;SDS011;10739;52.198;20.908;2024-01-30T12:10:18;20.02;;;11.55;;
21162;SDS011;10739;52.198;20.908;2024-01-30T12:12:48;24.52;;;12.02;;
21162;SDS011;10739;52.198;20.908;2024-01-30T12:15:16;24.55;;;11.90;;
21162;SDS011;10739;52.198;20.908;2024-01-30T12:17:44;23.75;;;11.13;;
21162;SDS011;10739;52.198;20.908;2024-01-30T12:20:14;21.17;;;10.57;;
21162;SDS011;10739;52.198;20.908;2024-01-30T12:22:44;24.48;;;11.70;;
21162;SDS011;10739;52.198;20.908;2024-01-30T12:25:13;26.35;;;11.75;;
21162;SDS011;10739;52.198;20.908;2024-01-30T12:27:44;19.65;;;10.63;;
21162;SDS011;10739;52.198;20.908;2024-01-30T12:30:16;22.48;;;12.10;;
21162;SDS011;10739;52.198;20.908;2024-01-30T12:32:45;21.60;;;11.80;;
21162;SDS011;10739;52.198;20.908;2024-01-30T12:35:15;24.23;;;12.00;;
21162;SDS011;10739;52.198;20.908;2024-01-30T12:37:43;22.17;;;11.82;;
21162;SDS011;10739;52.198;20.908;2024-01-30T12:40:11;24.98;;;12.00;;
21162;SDS011;10739;52.198;20.908;2024-01-30T12:42:42;24.80;;;11.55;;
21162;SDS011;10739;52.198;20.908;2024-01-30T12:45:15;24.63;;;11.45;;
21162;SDS011;10739;52.198;20.908;2024-01-30T12:47:45;19.60;;;10.93;;
21162;SDS011;10739;52.198;20.908;2024-01-30T12:50:11;18.73;;;10.73;;
21162;SDS011;10739;52.198;20.908;2024-01-30T12:52:41;24.73;;;11.98;;
21162;SDS011;10739;52.198;20.908;2024-01-30T12:55:08;24.98;;;11.70;;
21162;SDS011;10739;52.198;20.908;2024-01-30T12:57:35;18.88;;;11.57;;
21162;SDS011;10739;52.198;20.908;2024-01-30T13:00:00;29.40;;;11.35;;
21162;SDS011;10739;52.198;20.908;2024-01-30T13:02:27;22.70;;;10.30;;
21162;SDS011;10739;52.198;20.908;2024-01-30T13:05:00;17.63;;;10.50;;
21162;SDS011;10739;52.198;20.908;2024-01-30T13:07:26;20.90;;;11.13;;
21162;SDS011;10739;52.198;20.908;2024-01-30T13:09:52;21.75;;;10.75;;
21162;SDS011;10739;52.198;20.908;2024-01-30T13:12:18;21.50;;;12.15;;
21162;SDS011;10739;52.198;20.908;2024-01-30T13:14:44;27.13;;;10.93;;
21162;SDS011;10739;52.198;20.908;2024-01-30T13:17:11;23.80;;;11.18;;
21162;SDS011;10739;52.198;20.908;2024-01-30T13:19:37;23.88;;;11.00;;
21162;SDS011;10739;52.198;20.908;2024-01-30T13:22:05;19.08;;;11.88;;
21162;SDS011;10739;52.198;20.908;2024-01-30T13:24:33;23.00;;;11.10;;
21162;SDS011;10739;52.198;20.908;2024-01-30T13:26:58;26.45;;;13.10;;
21162;SDS011;10739;52.198;20.908;2024-01-30T13:29:25;21.58;;;11.10;;
21162;SDS011;10739;52.198;20.908;2024-01-30T13:31:51;21.33;;;11.30;;
21162;SDS011;10739;52.198;20.908;2024-01-30T13:34:17;22.25;;;11.45;;
21162;SDS011;10739;52.198;20.908;2024-01-30T13:36:44;25.45;;;11.70;;
21162;SDS011;10739;52.198;20.908;2024-01-30T13:39:10;22.30;;;11.25;;
21162;SDS011;10739;52.198;20.908;2024-01-30T13:41:38;20.27;;;11.60;;
21162;SDS011;10739;52.198;20.908;2024-01-30T13:44:04;21.80;;;10.55;;
21162;SDS011;10739;52.198;20.908;2024-01-30T13:46:30;25.73;;;11.48;;
21162;SDS011;10739;52.198;20.908;2024-01-30T13:48:56;24.85;;;11.10;;
21162;SDS011;10739;52.198;20.908;2024-01-30T13:51:22;20.23;;;11.10;;
21162;SDS011;10739;52.198;20.908;2024-01-30T13:53:49;29.08;;;11.88;;
21162;SDS011;10739;52.198;20.908;2024-01-30T13:56:20;23.58;;;12.50;;
21162;SDS011;10739;52.198;20.908;2024-01-30T13:58:48;23.38;;;12.38;;
21162;SDS011;10739;52.198;20.908;2024-01-30T14:01:17;22.73;;;11.77;;
21162;SDS011;10739;52.198;20.908;2024-01-30T14:03:43;29.40;;;11.70;;
21162;SDS011;10739;52.198;20.908;2024-01-30T14:06:09;25.33;;;11.02;;
21162;SDS011;10739;52.198;20.908;2024-01-30T14:08:37;30.15;;;12.02;;
21162;SDS011;10739;52.198;20.908;2024-01-30T14:11:03;23.45;;;11.43;;